Time;durP1;ratioP1;P1;durP2;ratioP2;P2;SDS_P1;SDS_P2;PMS_P1;PMS_P2;Temp;Humidity;BMP_temperature;BMP_pressure;BME280_temperature;BME280_humidity;BME280_pressure;Samples;Min_cycle;Max_cycle;Signal;HPM_P1;HPM_P2
2021/01/24 00:00:25;;;;;;;;;;;;;;;7.77;60.80;98388.19;5028434;28;7364;-77
2021/01/24 00:02:50;;;;;;;;;;;;;;;7.79;60.75;98386.47;5027078;28;7757;-77
2021/01/24 00:05:16;;;;;;;;;;;;;;;7.78;61.07;98389.06;5011494;28;7223;-76
2021/01/24 00:07:41;;;;;;;;;;;;;;;7.76;60.58;98390.78;5008516;28;6860;-76
2021/01/24 00:10:07;;;;;;;;;;;;;;;7.74;60.73;98388.22;5012413;28;7202;-76
2021/01/24 00:12:33;;;;;;;;;;;;;;;7.72;60.86;98384.78;5009685;28;6844;-75
2021/01/24 00:14:58;;;;;;;;;;;;;;;7.70;60.52;98377.91;5021707;28;6804;-76
2021/01/24 00:17:24;;;;;;;;;;;;;;;7.71;61.27;98379.63;4990364;28;6935;-75
2021/01/24 00:19:49;;;;;;;;;;;;;;;7.70;60.76;98375.31;5006232;28;7213;-77
2021/01/24 00:22:15;;;;;;;;;;;;;;;7.72;61.27;98378.75;5006377;28;7077;-77
2021/01/24 00:24:40;;;;;;;;;;;;;;;7.67;61.37;98380.50;5004811;28;7209;-77
2021/01/24 00:27:06;;;;;;;;;;;;;;;7.66;61.05;98378.78;4999967;28;6795;-77
2021/01/24 00:29:32;;;;;;;;;;;;;;;7.69;61.03;98374.47;4989539;28;7158;-77
2021/01/24 00:31:57;;;;;;;;;;;;;;;7.67;60.95;98375.34;4989388;28;7330;-77
2021/01/24 00:34:23;;;;;;;;;;;;;;;7.65;61.05;98371.91;4991809;28;6816;-76
2021/01/24 00:36:48;;;;;;;;;;;;;;;7.62;61.11;98375.34;4988619;28;6809;-77
2021/01/24 00:39:14;;;;;;;;;;;;;;;7.61;61.54;98368.47;4992670;28;7163;-76
2021/01/24 00:41:39;;;;;;;;;;;;;;;7.62;61.34;98383.97;4989275;28;7107;-77
2021/01/24 00:44:05;;;;;;;;;;;;;;;7.62;60.99;98381.38;4992940;28;6795;-76
2021/01/24 00:46:31;;;;;;;;;;;;;;;7.61;61.56;98379.66;4992086;28;7468;-77
2021/01/24 00:48:56;;;;;;;;;;;;;;;7.60;61.21;98375.31;4992538;28;7346;-75
2021/01/24 00:51:22;;;;;;;;;;;;;;;7.60;61.43;98375.31;4989520;28;6985;-76
2021/01/24 00:53:47;;;;;;;;;;;;;;;7.58;61.33;98378.78;4991446;28;8493;-77
2021/01/24 00:56:13;;;;;;;;;;;;;;;7.58;61.37;98377.06;4990576;28;8496;-77
2021/01/24 00:58:38;;;;;;;;;;;;;;;7.56;61.37;98375.34;4989361;28;7620;-77
2021/01/24 01:01:04;;;;;;;;;;;;;;;7.57;61.28;98382.22;4991397;28;6817;-76
2021/01/24 01:03:29;;;;;;;;;;;;;;;7.57;61.54;98379.66;4999690;28;6883;-77
2021/01/24 01:05:55;;;;;;;;;;;;;;;7.57;61.23;98382.22;4990499;28;7190;-76
2021/01/24 01:08:20;;;;;;;;;;;;;;;7.55;61.10;98382.25;4990687;28;6807;-77
2021/01/24 01:10:46;;;;;;;;;;;;;;;7.55;61.55;98373.63;4989838;28;6862;-77
2021/01/24 01:13:11;;;;;;;;;;;;;;;7.54;61.56;98379.66;4991326;28;6800;-76
2021/01/24 01:15:37;;;;;;;;;;;;;;;7.53;61.48;98385.69;4989550;28;8088;-77
2021/01/24 01:18:02;;;;;;;;;;;;;;;7.53;61.61;98385.69;5001090;28;7211;-76
2021/01/24 01:20:28;;;;;;;;;;;;;;;7.53;61.35;98393.44;4985022;28;7106;-76
2021/01/24 01:22:54;;;;;;;;;;;;;;;7.51;61.56;98390.88;5013687;28;7079;-76
2021/01/24 01:25:19;;;;;;;;;;;;;;;7.51;61.56;98390.00;5001380;28;7110;-77
2021/01/24 01:27:45;;;;;;;;;;;;;;;7.49;61.89;98402.94;4985106;28;6867;-77
2021/01/24 01:30:11;;;;;;;;;;;;;;;7.50;61.71;98393.47;5000499;28;7187;-77
2021/01/24 01:32:36;;;;;;;;;;;;;;;7.48;61.51;98395.19;4988566;28;6796;-77
2021/01/24 01:35:03;;;;;;;;;;;;;;;7.46;61.60;98397.78;5000752;28;6895;-76
2021/01/24 01:37:28;;;;;;;;;;;;;;;7.45;62.02;98400.34;4988948;28;7028;-77
2021/01/24 01:39:54;;;;;;;;;;;;;;;7.45;61.87;98396.06;5003521;28;8116;-77
2021/01/24 01:42:19;;;;;;;;;;;;;;;7.46;61.70;98408.09;4990276;28;7483;-77
2021/01/24 01:44:45;;;;;;;;;;;;;;;7.45;61.44;98416.72;4983425;28;8452;-77
2021/01/24 01:47:12;;;;;;;;;;;;;;;7.46;61.83;98418.44;4987633;28;7506;-76
2021/01/24 01:49:38;;;;;;;;;;;;;;;7.45;61.89;98423.59;5014438;28;6823;-75
2021/01/24 01:52:03;;;;;;;;;;;;;;;7.43;61.95;98433.94;4990251;28;7197;-77
2021/01/24 01:54:29;;;;;;;;;;;;;;;7.38;62.13;98448.53;5014436;28;7039;-77
2021/01/24 01:56:54;;;;;;;;;;;;;;;7.37;61.97;98444.25;4994596;28;7194;-77
2021/01/24 01:59:21;;;;;;;;;;;;;;;7.36;62.01;98447.69;4998004;28;7142;-75
2021/01/24 02:01:53;;;;;;;;;;;;;;;7.33;61.89;98447.69;4986875;28;6806;-77
2021/01/24 02:04:27;;;;;;;;;;;;;;;7.31;61.67;98462.34;5002366;28;6815;-75
2021/01/24 02:06:59;;;;;;;;;;;;;;;7.31;61.91;98459.75;5015649;28;6895;-76
2021/01/24 02:09:38;;;;;;;;;;;;;;;7.26;62.10;98462.34;4988430;28;7035;-77
2021/01/24 02:12:18;;;;;;;;;;;;;;;7.23;61.84;98459.75;5007224;28;11055;-77
2021/01/24 02:15:05;;;;;;;;;;;;;;;7.21;61.71;98465.78;4985233;28;7305;-77
2021/01/24 02:17:34;;;;;;;;;;;;;;;7.18;62.11;98468.34;5001177;28;11027;-77
2021/01/24 02:20:16;;;;;;;;;;;;;;;7.17;61.81;98471.78;4998094;28;7273;-76
2021/01/24 02:22:42;;;;;;;;;;;;;;;7.14;62.04;98484.69;5019669;28;11564;-75
2021/01/24 02:25:14;;;;;;;;;;;;;;;7.10;61.98;98475.25;4983570;28;8173;-76
2021/01/24 02:27:48;;;;;;;;;;;;;;;7.09;61.74;98473.53;5010255;28;6972;-76
2021/01/24 02:30:26;;;;;;;;;;;;;;;7.04;62.11;98476.09;5017014;28;7558;-76
2021/01/24 02:32:55;;;;;;;;;;;;;;;7.03;61.81;98489.00;5022146;28;7127;-74
2021/01/24 02:35:22;;;;;;;;;;;;;;;6.97;61.59;98488.13;5006885;28;6965;-75
2021/01/24 02:37:48;;;;;;;;;;;;;;;6.96;61.94;98493.28;5019249;28;7369;-77
2021/01/24 02:40:13;;;;;;;;;;;;;;;6.94;61.78;98493.28;5005592;28;7150;-75
2021/01/24 02:42:39;;;;;;;;;;;;;;;6.92;61.85;98502.75;5000231;28;6815;-77
2021/01/24 02:45:05;;;;;;;;;;;;;;;6.89;61.76;98502.75;5004563;28;6981;-76
2021/01/24 02:47:31;;;;;;;;;;;;;;;6.86;61.74;98507.03;5019601;28;7887;-76
2021/01/24 02:49:56;;;;;;;;;;;;;;;6.85;62.14;98508.75;5019742;28;6803;-76
2021/01/24 02:52:22;;;;;;;;;;;;;;;6.81;61.57;98512.19;5008489;28;7028;-77
2021/01/24 02:54:47;;;;;;;;;;;;;;;6.82;61.51;98516.50;5008751;28;7218;-76
2021/01/24 02:57:13;;;;;;;;;;;;;;;6.76;61.93;98526.78;5008766;28;6802;-76
2021/01/24 02:59:39;;;;;;;;;;;;;;;6.75;61.76;98525.06;5007958;28;7550;-76
2021/01/24 03:02:04;;;;;;;;;;;;;;;6.73;62.01;98531.94;5007475;28;6826;-75
2021/01/24 03:04:30;;;;;;;;;;;;;;;6.70;61.75;98540.53;5021771;28;6951;-76
2021/01/24 03:06:55;;;;;;;;;;;;;;;6.68;61.77;98533.63;5019354;28;6845;-76
2021/01/24 03:09:21;;;;;;;;;;;;;;;6.65;61.48;98539.66;5016992;28;8477;-76
2021/01/24 03:11:47;;;;;;;;;;;;;;;6.63;61.96;98541.38;5006976;28;7244;-77
2021/01/24 03:14:23;;;;;;;;;;;;;;;6.59;61.80;98549.91;5006018;28;7345;-77
2021/01/24 03:16:49;;;;;;;;;;;;;;;6.60;61.83;98550.78;5003621;28;8312;-76
2021/01/24 03:19:19;;;;;;;;;;;;;;;6.57;61.88;98559.38;5006331;28;7106;-75
2021/01/24 03:21:44;;;;;;;;;;;;;;;6.52;61.86;98557.63;5005881;28;7002;-76
2021/01/24 03:24:10;;;;;;;;;;;;;;;6.51;62.11;98566.22;5004492;28;7249;-76
2021/01/24 03:26:35;;;;;;;;;;;;;;;6.50;62.27;98567.09;5008496;28;7552;-77
2021/01/24 03:29:01;;;;;;;;;;;;;;;6.47;61.69;98564.50;5007487;28;6867;-77
2021/01/24 03:31:27;;;;;;;;;;;;;;;6.47;61.78;98578.25;5037883;28;6795;-77
2021/01/24 03:33:53;;;;;;;;;;;;;;;6.44;62.25;98587.69;5005736;28;7213;-75
2021/01/24 03:36:18;;;;;;;;;;;;;;;6.42;61.73;98587.69;5011109;28;7633;-77
2021/01/24 03:38:44;;;;;;;;;;;;;;;6.39;61.70;98588.50;5011560;28;6963;-76
2021/01/24 03:41:09;;;;;;;;;;;;;;;6.37;61.80;98592.78;5028422;28;7197;-77
2021/01/24 03:43:35;;;;;;;;;;;;;;;6.36;62.10;98592.78;5008902;28;8450;-76
2021/01/24 03:46:01;;;;;;;;;;;;;;;6.35;61.90;98602.25;5011117;28;7078;-75
2021/01/24 03:48:26;;;;;;;;;;;;;;;6.34;61.89;98607.38;5012250;28;6791;-76
2021/01/24 03:50:52;;;;;;;;;;;;;;;6.29;61.71;98616.81;5010821;28;7660;-76
2021/01/24 03:53:17;;;;;;;;;;;;;;;6.27;61.46;98609.06;5012711;28;7093;-76
2021/01/24 03:55:43;;;;;;;;;;;;;;;6.25;61.75;98615.09;5013254;28;7018;-77
2021/01/24 03:58:08;;;;;;;;;;;;;;;6.22;62.00;98610.78;5010022;28;7513;-76
2021/01/24 04:00:34;;;;;;;;;;;;;;;6.23;61.63;98621.94;5012587;28;6921;-76
2021/01/24 04:02:59;;;;;;;;;;;;;;;6.20;61.64;98627.06;5009307;28;7189;-76
2021/01/24 04:05:25;;;;;;;;;;;;;;;6.19;61.78;98628.78;5008903;28;6871;-76
2021/01/24 04:07:50;;;;;;;;;;;;;;;6.14;62.35;98635.63;5027769;28;7252;-75
2021/01/24 04:10:16;;;;;;;;;;;;;;;6.14;61.96;98633.03;5033139;28;7210;-76
2021/01/24 04:12:41;;;;;;;;;;;;;;;6.12;61.72;98639.03;5008125;28;7725;-76
2021/01/24 04:15:07;;;;;;;;;;;;;;;6.08;62.01;98633.88;5009634;28;7265;-75
2021/01/24 04:17:33;;;;;;;;;;;;;;;6.07;61.93;98645.03;5041038;28;7098;-75
2021/01/24 04:19:58;;;;;;;;;;;;;;;6.06;62.01;98643.31;5011201;28;6796;-76
2021/01/24 04:22:24;;;;;;;;;;;;;;;6.04;61.41;98650.16;5032704;28;8532;-75
2021/01/24 04:24:50;;;;;;;;;;;;;;;6.01;62.17;98646.69;5027332;28;7423;-75
2021/01/24 04:27:15;;;;;;;;;;;;;;;6.02;61.81;98651.88;5010687;28;6795;-76
2021/01/24 04:29:41;;;;;;;;;;;;;;;6.00;61.61;98660.41;5007982;28;7683;-76
2021/01/24 04:32:06;;;;;;;;;;;;;;;5.98;62.37;98662.97;5025559;28;7142;-76
2021/01/24 04:34:32;;;;;;;;;;;;;;;5.98;62.21;98669.84;5009313;28;6949;-76
2021/01/24 04:36:57;;;;;;;;;;;;;;;5.96;62.38;98674.97;5011810;28;6867;-76
2021/01/24 04:39:23;;;;;;;;;;;;;;;5.95;62.08;98675.84;5011170;28;7902;-76
2021/01/24 04:41:49;;;;;;;;;;;;;;;5.95;62.18;98682.69;5009535;28;6895;-76
2021/01/24 04:44:15;;;;;;;;;;;;;;;5.92;62.32;98686.13;5011916;28;6989;-76
2021/01/24 04:46:40;;;;;;;;;;;;;;;5.90;62.14;98689.53;5010512;28;7189;-75
2021/01/24 04:49:06;;;;;;;;;;;;;;;5.88;62.29;98686.91;5008608;28;7363;-77
2021/01/24 04:51:31;;;;;;;;;;;;;;;5.87;62.03;98700.66;5024308;28;11419;-78
2021/01/24 04:53:57;;;;;;;;;;;;;;;5.82;62.15;98697.16;4992525;28;7153;-75
2021/01/24 04:56:23;;;;;;;;;;;;;;;5.83;61.95;98695.47;5024950;28;6788;-75
2021/01/24 04:58:48;;;;;;;;;;;;;;;5.81;62.59;98698.03;5008846;28;7461;-77
2021/01/24 05:01:14;;;;;;;;;;;;;;;5.79;62.10;98702.25;5010493;28;7113;-77
2021/01/24 05:03:40;;;;;;;;;;;;;;;5.77;62.29;98709.13;5006177;28;7526;-75
2021/01/24 05:06:05;;;;;;;;;;;;;;;5.77;62.00;98712.56;5023903;28;7178;-76
2021/01/24 05:08:31;;;;;;;;;;;;;;;5.75;61.98;98709.09;5009723;28;7399;-76
2021/01/24 05:11:05;;;;;;;;;;;;;;;5.71;62.33;98714.22;5026335;28;7115;-76
2021/01/24 05:13:31;;;;;;;;;;;;;;;5.71;62.50;98719.38;5025926;28;7325;-77
2021/01/24 05:15:57;;;;;;;;;;;;;;;5.70;62.16;98723.66;5023730;28;7620;-76
2021/01/24 05:18:22;;;;;;;;;;;;;;;5.71;61.93;98738.25;5008022;28;7225;-76
2021/01/24 05:20:49;;;;;;;;;;;;;;;5.68;62.22;98732.22;5011487;28;7183;-75
2021/01/24 05:23:14;;;;;;;;;;;;;;;5.64;62.48;98728.75;4996709;28;6827;-75
2021/01/24 05:25:40;;;;;;;;;;;;;;;5.67;62.06;98743.38;5011598;28;7234;-76
2021/01/24 05:28:17;;;;;;;;;;;;;;;5.65;62.06;98751.06;5024960;28;6942;-77
2021/01/24 05:30:42;;;;;;;;;;;;;;;5.65;62.33;98750.22;5024709;28;11193;-76
2021/01/24 05:33:08;;;;;;;;;;;;;;;5.62;62.78;98752.75;5009040;28;7029;-77
2021/01/24 05:35:35;;;;;;;;;;;;;;;5.60;62.90;98752.72;5008845;28;11061;-76
2021/01/24 05:38:00;;;;;;;;;;;;;;;5.60;62.25;98760.44;5007605;28;7058;-77
2021/01/24 05:40:26;;;;;;;;;;;;;;;5.58;62.29;98763.84;5010890;28;6867;-77
2021/01/24 05:42:52;;;;;;;;;;;;;;;5.57;62.76;98760.41;5009616;28;7216;-75
2021/01/24 05:45:18;;;;;;;;;;;;;;;5.57;62.56;98778.44;4993220;28;6784;-77
2021/01/24 05:47:44;;;;;;;;;;;;;;;5.56;62.60;98776.72;5009878;28;7068;-76
2021/01/24 05:50:14;;;;;;;;;;;;;;;5.54;62.24;98773.25;5035409;28;8658;-77
2021/01/24 05:52:41;;;;;;;;;;;;;;;5.52;62.70;98790.41;5024614;28;7423;-76
2021/01/24 05:55:10;;;;;;;;;;;;;;;5.52;62.96;98795.53;5008463;28;6816;-77
2021/01/24 05:57:40;;;;;;;;;;;;;;;5.50;62.99;98794.66;5024158;28;11485;-76
2021/01/24 06:00:06;;;;;;;;;;;;;;;5.49;62.54;98793.81;5009876;28;11089;-76
2021/01/24 06:02:32;;;;;;;;;;;;;;;5.48;62.30;98815.25;5023719;28;6819;-76
2021/01/24 06:04:58;;;;;;;;;;;;;;;5.48;63.01;98809.22;5006353;28;7665;-76
2021/01/24 06:07:23;;;;;;;;;;;;;;;5.47;62.95;98812.66;5007027;28;6792;-74
2021/01/24 06:09:49;;;;;;;;;;;;;;;5.47;62.63;98828.09;5020346;28;7026;-75
2021/01/24 06:12:17;;;;;;;;;;;;;;;5.47;62.36;98822.94;5008923;28;7062;-77
2021/01/24 06:14:49;;;;;;;;;;;;;;;5.44;62.87;98828.06;5008557;28;7143;-77
2021/01/24 06:17:20;;;;;;;;;;;;;;;5.43;63.07;98844.34;5004727;28;6824;-77
2021/01/24 06:19:47;;;;;;;;;;;;;;;5.44;62.62;98846.09;5025227;28;7869;-75
2021/01/24 06:22:14;;;;;;;;;;;;;;;5.43;62.46;98855.53;5007220;28;7265;-77
2021/01/24 06:24:43;;;;;;;;;;;;;;;5.37;62.66;98851.97;5023409;28;7236;-77
2021/01/24 06:27:09;;;;;;;;;;;;;;;5.38;62.71;98858.84;5021645;28;7054;-76
2021/01/24 06:29:34;;;;;;;;;;;;;;;5.37;63.24;98867.41;5025887;28;7225;-76
2021/01/24 06:32:00;;;;;;;;;;;;;;;5.37;62.91;98868.28;5004857;28;6795;-77
2021/01/24 06:34:35;;;;;;;;;;;;;;;5.39;62.97;98876.03;5006306;28;7051;-77
2021/01/24 06:37:03;;;;;;;;;;;;;;;5.38;62.71;98884.59;5006805;28;7087;-75
2021/01/24 06:39:38;;;;;;;;;;;;;;;5.37;63.22;98883.72;5009214;28;7329;-75
2021/01/24 06:42:04;;;;;;;;;;;;;;;5.37;63.09;98888.00;5005596;28;7910;-76
2021/01/24 06:44:39;;;;;;;;;;;;;;;5.33;62.64;98893.97;5019517;28;6945;-77
2021/01/24 06:47:28;;;;;;;;;;;;;;;5.33;63.11;98899.09;5029426;28;7162;-76
2021/01/24 06:49:53;;;;;;;;;;;;;;;5.33;63.09;98912.84;5007911;28;12419;-76
2021/01/24 06:52:20;;;;;;;;;;;;;;;5.32;62.70;98913.69;5008580;28;7650;-76
2021/01/24 06:54:47;;;;;;;;;;;;;;;5.34;63.15;98921.44;5007098;28;6872;-77
2021/01/24 06:57:12;;;;;;;;;;;;;;;5.32;63.15;98925.69;5008056;28;7075;-77
2021/01/24 06:59:38;;;;;;;;;;;;;;;5.29;63.12;98930.81;5009840;28;7186;-77
2021/01/24 07:02:23;;;;;;;;;;;;;;;5.29;63.05;98934.25;5018723;28;7589;-73
2021/01/24 07:05:11;;;;;;;;;;;;;;;5.32;62.41;98941.13;5005722;28;11236;-74
2021/01/24 07:07:37;;;;;;;;;;;;;;;5.29;62.94;98946.25;5003598;28;11018;-75
2021/01/24 07:10:04;;;;;;;;;;;;;;;5.28;62.88;98955.66;5004629;28;6888;-76
2021/01/24 07:12:38;;;;;;;;;;;;;;;5.26;62.86;98954.78;4990991;28;8804;-75
2021/01/24 07:15:05;;;;;;;;;;;;;;;5.26;63.20;98961.63;5035820;28;7276;-75
2021/01/24 07:17:31;;;;;;;;;;;;;;;5.38;62.96;98972.09;5022801;28;7458;-74
2021/01/24 07:19:56;;;;;;;;;;;;;;;5.47;62.38;98983.44;5012418;28;6969;-73
2021/01/24 07:22:23;;;;;;;;;;;;;;;5.53;62.27;98984.34;5039728;28;6929;-74
2021/01/24 07:24:49;;;;;;;;;;;;;;;5.58;62.02;98988.72;5011110;28;8182;-73
2021/01/24 07:27:36;;;;;;;;;;;;;;;5.60;62.03;98992.19;5027154;28;7304;-74
2021/01/24 07:30:01;;;;;;;;;;;;;;;5.62;62.57;98999.97;5024941;28;7062;-74
2021/01/24 07:32:28;;;;;;;;;;;;;;;5.59;62.39;99005.91;5025880;28;7078;-73
2021/01/24 07:34:54;;;;;;;;;;;;;;;5.63;62.10;99004.25;5003780;28;6815;-74
2021/01/24 07:37:20;;;;;;;;;;;;;;;5.62;62.25;99010.25;5024665;28;6835;-74
2021/01/24 07:39:47;;;;;;;;;;;;;;;5.63;61.65;99015.44;5010855;28;6808;-74
2021/01/24 07:42:13;;;;;;;;;;;;;;;5.65;61.63;99024.03;5006350;28;6852;-73
2021/01/24 07:44:39;;;;;;;;;;;;;;;5.65;61.69;99028.31;5009681;28;6799;-75
2021/01/24 07:47:05;;;;;;;;;;;;;;;5.65;61.97;99030.91;5009815;28;7386;-74
2021/01/24 07:49:30;;;;;;;;;;;;;;;5.69;61.56;99035.25;5026214;28;6860;-73
2021/01/24 07:51:56;;;;;;;;;;;;;;;5.68;62.18;99031.81;5010639;28;7753;-75
2021/01/24 07:54:22;;;;;;;;;;;;;;;5.70;62.16;99047.28;5007141;28;8694;-74
2021/01/24 07:56:47;;;;;;;;;;;;;;;5.73;62.14;99048.19;5008870;28;6860;-74
2021/01/24 07:59:13;;;;;;;;;;;;;;;5.72;61.96;99046.47;5020375;28;7645;-74
2021/01/24 08:01:39;;;;;;;;;;;;;;;5.76;61.81;99055.97;5006775;28;7082;-76
2021/01/24 08:04:05;;;;;;;;;;;;;;;5.76;61.77;99053.38;5024276;28;6814;-75
2021/01/24 08:06:32;;;;;;;;;;;;;;;5.78;62.05;99058.56;5004917;28;6797;-76
2021/01/24 08:08:57;;;;;;;;;;;;;;;5.79;61.39;99061.16;5010118;28;6795;-75
2021/01/24 08:11:23;;;;;;;;;;;;;;;5.77;61.77;99065.41;5005413;28;7143;-76
2021/01/24 08:13:49;;;;;;;;;;;;;;;5.80;61.55;99075.75;5008668;28;7059;-74
2021/01/24 08:16:47;;;;;;;;;;;;;;;5.84;61.41;99075.84;4992598;28;7250;-74
2021/01/24 08:19:20;;;;;;;;;;;;;;;5.88;61.73;99082.75;5008080;28;12769;-77
2021/01/24 08:21:47;;;;;;;;;;;;;;;5.87;61.48;99094.78;5005057;28;7445;-74
2021/01/24 08:24:13;;;;;;;;;;;;;;;5.98;62.10;99085.50;5008866;28;7229;-74
2021/01/24 08:26:38;;;;;;;;;;;;;;;6.06;62.99;99093.38;5007849;28;7357;-74
2021/01/24 08:29:04;;;;;;;;;;;;;;;6.13;63.50;99096.91;5007731;28;6934;-76
2021/01/24 08:31:29;;;;;;;;;;;;;;;6.12;63.76;99095.16;5012044;28;6780;-76
2021/01/24 08:33:55;;;;;;;;;;;;;;;6.08;63.99;99102.88;4996640;28;8360;-76
2021/01/24 08:36:25;;;;;;;;;;;;;;;6.13;63.82;99105.50;5006875;28;8871;-75
2021/01/24 08:38:55;;;;;;;;;;;;;;;6.17;63.61;99111.56;5032407;28;7477;-75
2021/01/24 08:41:28;;;;;;;;;;;;;;;6.17;63.53;99114.13;5022846;28;7273;-75
2021/01/24 08:44:10;;;;;;;;;;;;;;;6.20;63.78;99120.19;5023576;28;7214;-74
2021/01/24 08:46:37;;;;;;;;;;;;;;;6.19;63.27;99118.47;5006819;28;7038;-74
2021/01/24 08:49:32;;;;;;;;;;;;;;;6.19;63.58;99125.34;5021057;28;7296;-73
2021/01/24 08:52:04;;;;;;;;;;;;;;;6.19;63.38;99131.34;5013760;28;11131;-73
2021/01/24 08:54:33;;;;;;;;;;;;;;;6.22;63.25;99136.56;5008979;28;7492;-73
2021/01/24 08:57:44;;;;;;;;;;;;;;;6.23;63.00;99146.03;4998751;28;7621;-73
2021/01/24 09:01:08;;;;;;;;;;;;;;;;;;;;;
2021/01/24 09:04:03;;;;;;;;;;;;;;;6.25;62.52;99157.25;4932584;28;19853;-73
2021/01/24 09:06:39;;;;;;;;;;;;;;;6.31;62.65;99159.91;4999087;28;11248;-74
2021/01/24 09:09:15;;;;;;;;;;;;;;;6.28;62.59;99166.72;4983473;28;6841;-74
2021/01/24 09:11:41;;;;;;;;;;;;;;;6.29;62.65;99169.31;4964493;28;11256;-76
2021/01/24 09:14:07;;;;;;;;;;;;;;;6.24;62.89;99168.41;4996262;28;8098;-75
2021/01/24 09:16:33;;;;;;;;;;;;;;;6.25;62.80;99175.28;4982177;28;7549;-74
2021/01/24 09:18:58;;;;;;;;;;;;;;;6.24;63.04;99186.44;4979574;28;7246;-74
2021/01/24 09:21:24;;;;;;;;;;;;;;;6.24;62.14;99181.28;4981328;28;6792;-75
2021/01/24 09:23:52;;;;;;;;;;;;;;;6.28;62.27;99180.47;5019847;28;7328;-73
2021/01/24 09:26:18;;;;;;;;;;;;;;;6.23;61.98;99194.16;5036430;28;6807;-74
2021/01/24 09:28:43;;;;;;;;;;;;;;;6.29;62.24;99195.09;5006992;28;6946;-74
2021/01/24 09:31:09;;;;;;;;;;;;;;;6.32;62.11;99195.16;5020193;28;6787;-74
2021/01/24 09:33:35;;;;;;;;;;;;;;;6.31;62.25;99206.31;5007826;28;6930;-72
2021/01/24 09:36:00;;;;;;;;;;;;;;;6.35;62.49;99208.06;5008521;28;6972;-74
2021/01/24 09:38:26;;;;;;;;;;;;;;;6.36;62.34;99202.06;5007058;28;7305;-73
2021/01/24 09:40:51;;;;;;;;;;;;;;;6.40;62.17;99216.75;5006601;28;6837;-74
2021/01/24 09:43:17;;;;;;;;;;;;;;;6.42;61.78;99215.94;5003970;28;7297;-73
2021/01/24 09:45:42;;;;;;;;;;;;;;;6.33;61.45;99220.09;5006007;28;10976;-73
2021/01/24 09:48:08;;;;;;;;;;;;;;;6.32;62.20;99225.22;5006281;28;7392;-72
2021/01/24 09:50:33;;;;;;;;;;;;;;;6.33;62.19;99235.56;5005733;28;6783;-73
2021/01/24 09:52:59;;;;;;;;;;;;;;;6.36;61.92;99232.16;5005189;28;6807;-73
2021/01/24 09:55:24;;;;;;;;;;;;;;;6.39;61.54;99245.94;5011047;28;7291;-72
2021/01/24 09:57:50;;;;;;;;;;;;;;;6.38;61.56;99236.47;5004388;28;7094;-73
2021/01/24 10:00:16;;;;;;;;;;;;;;;6.46;61.55;99243.50;5018368;28;7019;-74
2021/01/24 10:02:42;;;;;;;;;;;;;;;6.51;61.59;99254.75;5008359;28;6803;-75
2021/01/24 10:05:08;;;;;;;;;;;;;;;6.51;61.32;99247.88;5007040;28;7459;-75
2021/01/24 10:07:33;;;;;;;;;;;;;;;6.51;61.50;99247.88;5006271;28;7099;-75
2021/01/24 10:09:59;;;;;;;;;;;;;;;6.54;61.44;99255.66;5016298;28;7911;-76
2021/01/24 10:12:25;;;;;;;;;;;;;;;6.59;60.82;99260.88;5035384;28;8517;-74
2021/01/24 10:14:50;;;;;;;;;;;;;;;6.56;60.79;99259.13;5019184;28;6787;-76
2021/01/24 10:17:16;;;;;;;;;;;;;;;6.59;61.31;99260.88;5006917;28;7158;-76
2021/01/24 10:19:41;;;;;;;;;;;;;;;6.64;60.86;99264.41;5002888;28;6866;-74
2021/01/24 10:22:07;;;;;;;;;;;;;;;6.68;61.14;99271.34;5009236;28;7055;-73
2021/01/24 10:24:32;;;;;;;;;;;;;;;6.71;60.94;99274.81;5022732;28;6867;-73
2021/01/24 10:26:58;;;;;;;;;;;;;;;6.72;61.03;99279.16;5005575;28;7344;-75
2021/01/24 10:29:25;;;;;;;;;;;;;;;6.77;60.55;99280.91;5005880;28;7106;-74
2021/01/24 10:31:50;;;;;;;;;;;;;;;6.72;60.75;99281.72;5019961;28;6807;-72
2021/01/24 10:34:16;;;;;;;;;;;;;;;6.71;60.38;99292.88;5028979;28;6791;-75
2021/01/24 10:36:41;;;;;;;;;;;;;;;6.70;60.70;99295.44;5017038;28;7970;-74
2021/01/24 10:39:07;;;;;;;;;;;;;;;6.75;60.75;99296.38;5008981;28;6792;-75
2021/01/24 10:41:32;;;;;;;;;;;;;;;6.74;61.02;99301.50;5032845;28;7348;-73
2021/01/24 10:43:59;;;;;;;;;;;;;;;6.73;60.64;99308.38;5008909;28;6818;-75
2021/01/24 10:46:25;;;;;;;;;;;;;;;6.67;60.83;99309.16;5027832;28;7122;-73
2021/01/24 10:48:50;;;;;;;;;;;;;;;6.77;60.52;99315.31;5013164;28;6837;-73
2021/01/24 10:51:16;;;;;;;;;;;;;;;6.84;60.13;99311.16;5015221;28;6799;-73
2021/01/24 10:53:41;;;;;;;;;;;;;;;6.87;60.25;99317.22;5012581;28;7443;-70
2021/01/24 10:56:07;;;;;;;;;;;;;;;6.91;60.17;99319.00;5015107;28;6791;-74
2021/01/24 10:58:32;;;;;;;;;;;;;;;6.90;60.13;99321.56;5010447;28;7082;-75
2021/01/24 11:00:58;;;;;;;;;;;;;;;6.84;60.09;99319.75;5012348;28;8527;-77
2021/01/24 11:03:23;;;;;;;;;;;;;;;6.85;60.30;99321.50;5009868;28;11006;-77
2021/01/24 11:05:49;;;;;;;;;;;;;;;6.86;60.18;99325.81;5008183;28;6796;-76
2021/01/24 11:08:15;;;;;;;;;;;;;;;6.97;60.13;99324.22;5025664;28;7312;-78
2021/01/24 11:10:41;;;;;;;;;;;;;;;7.15;60.91;99330.50;5012434;28;7311;-76
2021/01/24 11:13:06;;;;;;;;;;;;;;;7.29;62.80;99319.53;5012243;28;7717;-76
2021/01/24 11:15:32;;;;;;;;;;;;;;;7.47;64.12;99324.06;5006653;28;7141;-75
2021/01/24 11:17:57;;;;;;;;;;;;;;;7.56;64.79;99331.06;5012974;28;8712;-76
2021/01/24 11:20:23;;;;;;;;;;;;;;;7.59;64.60;99328.50;5010683;28;7753;-77
2021/01/24 11:22:48;;;;;;;;;;;;;;;7.78;63.41;99330.47;5011802;28;7228;-77
2021/01/24 11:25:14;;;;;;;;;;;;;;;7.87;63.00;99329.72;5012087;28;7198;-75
2021/01/24 11:27:40;;;;;;;;;;;;;;;8.06;62.33;99334.25;5008947;28;7194;-76
2021/01/24 11:30:07;;;;;;;;;;;;;;;8.28;61.37;99330.16;5008096;28;7524;-75
2021/01/24 11:32:32;;;;;;;;;;;;;;;8.34;61.17;99331.97;5021853;28;7189;-75
2021/01/24 11:34:58;;;;;;;;;;;;;;;8.26;60.97;99342.22;5038301;28;7149;-76
2021/01/24 11:37:24;;;;;;;;;;;;;;;8.28;60.98;99331.88;5009931;28;7034;-75
2021/01/24 11:39:49;;;;;;;;;;;;;;;8.26;61.32;99333.59;5013622;28;7233;-75
2021/01/24 11:42:15;;;;;;;;;;;;;;;8.23;61.02;99339.59;5012229;28;7316;-74
2021/01/24 11:44:40;;;;;;;;;;;;;;;8.16;61.36;99346.41;5025078;28;8654;-76
2021/01/24 11:47:06;;;;;;;;;;;;;;;8.17;61.16;99349.84;5010605;28;7402;-75
2021/01/24 11:49:31;;;;;;;;;;;;;;;8.23;60.70;99349.94;5009347;28;7098;-75
2021/01/24 11:51:57;;;;;;;;;;;;;;;8.26;60.26;99339.63;5009871;28;7410;-72
2021/01/24 11:54:22;;;;;;;;;;;;;;;8.34;60.02;99353.53;5003557;28;7655;-75
2021/01/24 11:56:48;;;;;;;;;;;;;;;8.22;60.78;99348.22;5006577;28;6874;-74
2021/01/24 11:59:13;;;;;;;;;;;;;;;8.39;60.03;99346.66;5005397;28;7058;-73
2021/01/24 12:01:39;;;;;;;;;;;;;;;8.42;60.00;99346.72;5007449;28;6790;-74
2021/01/24 12:04:05;;;;;;;;;;;;;;;8.46;59.53;99352.78;5011758;28;6852;-75
2021/01/24 12:06:30;;;;;;;;;;;;;;;8.53;58.93;99355.44;5009449;28;7210;-75
2021/01/24 12:08:56;;;;;;;;;;;;;;;8.67;58.70;99357.28;5009283;28;7385;-74
2021/01/24 12:11:21;;;;;;;;;;;;;;;8.70;58.92;99353.00;5033033;28;7098;-75
2021/01/24 12:13:47;;;;;;;;;;;;;;;8.73;58.67;99352.16;5006719;28;6929;-74
2021/01/24 12:16:12;;;;;;;;;;;;;;;8.75;58.52;99350.44;4991741;28;7237;-74
2021/01/24 12:18:38;;;;;;;;;;;;;;;8.89;58.15;99353.13;5005664;28;7224;-75
2021/01/24 12:21:03;;;;;;;;;;;;;;;9.05;57.60;99348.09;4989426;28;6783;-74
2021/01/24 12:23:29;;;;;;;;;;;;;;;9.08;57.44;99348.09;4989904;28;7215;-74
2021/01/24 12:25:55;;;;;;;;;;;;;;;9.03;57.43;99347.22;4987557;28;7248;-74
2021/01/24 12:28:20;;;;;;;;;;;;;;;9.10;57.22;99348.97;4999961;28;6787;-74
2021/01/24 12:30:46;;;;;;;;;;;;;;;9.23;56.98;99355.13;4985286;28;7268;-74
2021/01/24 12:33:12;;;;;;;;;;;;;;;9.23;56.55;99355.13;4984847;28;7177;-74
2021/01/24 12:35:39;;;;;;;;;;;;;;;9.29;56.87;99356.88;4985845;28;7143;-74
2021/01/24 12:38:04;;;;;;;;;;;;;;;9.38;56.65;99355.19;5013487;28;6934;-75
2021/01/24 12:40:30;;;;;;;;;;;;;;;9.58;56.45;99347.50;4992086;28;7113;-74
2021/01/24 12:42:55;;;;;;;;;;;;;;;9.72;55.85;99345.00;4991605;28;7360;-74
2021/01/24 12:45:21;;;;;;;;;;;;;;;10.24;54.53;99340.88;4990527;28;7381;-74
2021/01/24 12:47:46;;;;;;;;;;;;;;;10.90;52.85;99333.13;4990420;28;6800;-73
2021/01/24 12:50:12;;;;;;;;;;;;;;;11.19;52.23;99331.34;4999804;28;6812;-74
2021/01/24 12:52:38;;;;;;;;;;;;;;;11.56;50.88;99326.91;4996885;28;7210;-74
2021/01/24 12:55:03;;;;;;;;;;;;;;;11.86;50.50;99332.91;5008224;28;6834;-75
2021/01/24 12:57:29;;;;;;;;;;;;;;;13.17;47.39;99326.72;5004615;28;7195;-74
2021/01/24 12:59:55;;;;;;;;;;;;;;;13.10;47.69;99319.84;5010660;28;6986;-76
2021/01/24 13:02:20;;;;;;;;;;;;;;;12.40;51.34;99323.03;5007346;28;6928;-75
2021/01/24 13:04:46;;;;;;;;;;;;;;;11.96;53.78;99329.38;5025392;28;7986;-74
2021/01/24 13:07:12;;;;;;;;;;;;;;;12.07;53.89;99329.34;5010354;28;6804;-73